KARR

Aurora Municipal Airport

Chicago/Aurora, Illinois, USA
METAR KARR 222052Z 07014KT 10SM CLR 18/M06 A3024 RMK AO2 SLP240 T01781056 56020 $
Observed Flight Rules
Apr-22 @ 20:52 UTC (50 minutes ago) Visual Flight Rules
Wind Visibility Clouds
70° at 14 knots 10 miles
  • Clear skies
Temperatures Readings
Current 18°C / 64°F
Dewpoint -6°C / 21°F
Humidity 19%
Altimeter 30.24" Hg
Pressure 1024 hPa
Elevation 215
METAR KARR 222052Z 07014KT 10SM CLR 18/M06 A3024 RMK AO2 SLP240 T01781056 56020 $
Observed Flight Rules
Apr-22 @ 20:52 UTC
(50 minutes ago)
VFR
Wind Visibility
70° at 14 knots 10 miles
Clouds
  • Clear skies
Temperature Dewpoint
18°C / 64°F -6°C / 21°F
Humidity Altimeter Pressure
19% 30.24" Hg 1024 hPa